Yakutia B737 at Moscow on Dec 25th 2020, overran runway on landing

Last Update: December 25, 2020 / 13:59:08 GMT/Zulu time

Bookmark this article
Incident Facts

Date of incident
Dec 25, 2020

Classification
Incident

Flight number
R3-784

Aircraft Registration
VQ-BIP

Aircraft Type
Boeing 737-700

ICAO Type Designator
B737

Airport ICAO Code
UUWW

A Yakutia Boeing 737-700, registration VQ-BIP performing flight R3-784 from Neryungri to Moscow Vnukovo (Russia) with 109 passengers and 7 crew, landed on Vnukovo's runway 24 at 12:00L (09:00Z) but overran the end of the runway by about 20 meters and came to a stop on the paved surface of the runway end safety area. There were no injuries.

The airport reported the passengers disembarked normally and were taken to the terminal, the luggage was unloaded and already handed to the passengers, the aircraft is being pushed back onto the taxiway.

The aircraft was pushed back manually via the tow bar, the tow truck waited to take over on the taxiway.

Metars:
UUWW 251000Z 15007MPS 2900 -SN BKN009 OVC030 M05/M07 Q1004 WS R19 R19/491035 TEMPO 0500 +SHSN BKN012CB=
UUWW 250930Z 15007MPS 1900 R19/1600D SN BKN009 OVC030 M05/M06 Q1004 R19/491035 TEMPO 0500 +SHSN BKN012CB=
UUWW 250900Z 14005MPS 1300 1200N R24/1300U SN BKN008 OVC026 M05/M06 Q1005 R24/590337 TEMPO 0500 +SHSN BKN012CB=
UUWW 250830Z 14005MPS 1400 1200N R24/1400D SN BKN008 OVC018 M04/M06 Q1005 R24/590337 TEMPO 0500 +SHSN BKN012CB=
UUWW 250800Z 15007G12MPS 1000 R19/1000N SN OVC008 M04/M05 Q1005 R19/491035 TEMPO 0500 +SHSN BKN012CB=
UUWW 250730Z 15008MPS 0800 R19/0800D +SN VV005 M03/M05 Q1005 R19/491035 TEMPO 0500 +SHSN BKN012CB=
UUWW 250700Z 15005MPS 0800 R06/0900N +SN VV006 M03/M05 Q1005 R06/590537 TEMPO 0500 +SHSN BKN012CB=
UUWW 250630Z 15005MPS 1400 R06/1600N SN BKN007 OVC019 M03/M05 Q1005 R06/590537 TEMPO 0500 +SHSN BKN012CB=
UUWW 250600Z 14007MPS 2100 R19/1700U -SN OVC007 M03/M04 Q1005 R19/420540 TEMPO 0500 +SHSN BKN012CB=
Incident Facts

Date of incident
Dec 25, 2020

Classification
Incident

Flight number
R3-784

Aircraft Registration
VQ-BIP

Aircraft Type
Boeing 737-700

ICAO Type Designator
B737

Airport ICAO Code
UUWW

This article is published under license from Avherald.com. © of text by Avherald.com.
Article source

You can read 2 more free articles without a subscription.

Subscribe now and continue reading without any limits!

Are you a subscriber? Login
Subscribe

Read unlimited articles and receive our daily update briefing. Gain better insights into what is happening in commercial aviation safety.

Free newsletter

Want to know more and stay ahead? Get our free weekly newsletter and join 5278 existing subscribers.

By subscribing, you accept our terms and conditions and confirm that you've read our privacy policy.

Send tip

Support AeroInside by sending a small tip amount.

Related articles

Newest articles

Subscribe today

Are you researching aviation incidents? Get access to AeroInside Insights, unlimited read access and receive the daily newsletter.

Pick your plan and subscribe

Partner

Blockaviation logo

A new way to document and demonstrate airworthiness compliance and aircraft value. Find out more.

Virtual Speech logo

ELITE Simulation Solutions is a leading global provider of Flight Simulation Training Devices, IFR training software as well as flight controls and related services. Find out more.

Get updates

Never miss an article from AeroInside. Subscribe to our free weekly newsletter and join 5278 existing subscribers.

By subscribing, you accept our terms and conditions and that you've read our privacy policy.

AeroInside Blog
Popular aircraft
Airbus A320
Boeing 737-800
Boeing 737-800 MAX
Popular airlines
American Airlines
United
Delta
Air Canada
Lufthansa
British Airways